Current Conditions
Clear
Conditions



Pressure
1024.92 (hPa) - 30.27 (inHG)
Visibility

6.2 (mimiles) - 10.0 (km)
   Temperature
14  °C
57°F
7  °C
Dewpoint
63  %
 Humidity
   Wind Speed
7  mph
6  kts
11  km/h
3.1  m/s
   Wind Direction
 90°
Due East
   Airport Data
EGTK
Location Oxford (Kidlington) 26 mi (41.83 km)
Metar :EGTK 092020Z 09006KT CAVOK 14/07 Q1025
Thu 9th April 21:20 pm
   Raw Metar Info
Raw METAR is the most common format in the world for the transmission of observational weather data. It is highly standardized through the International Civil Aviation Organization (ICAO), which allows it to be understood throughout most of the world.
   API Info
Data Provided by
https://www.checkwx.com/weather/EGTK
   © Info
CSS/SVG/PHP scripts were developed by weather34.com for use in the weather34 template © 2015-2020

Guide Info provided by Metar-Wikipedia